createdAt,value
2023-02-28T00:00:39.505Z,3.63
2023-02-28T00:03:06.918Z,4.88
2023-02-28T00:05:34.126Z,6.38
2023-02-28T00:08:01.221Z,3.63
2023-02-28T00:10:30.975Z,5.03
2023-02-28T00:13:02.094Z,4.22
2023-02-28T00:15:28.891Z,5.80
2023-02-28T00:17:55.805Z,4.30
2023-02-28T00:20:22.634Z,4.82
2023-02-28T00:22:52.441Z,4.55
2023-02-28T00:25:21.974Z,5.97
2023-02-28T00:27:49.369Z,4.32
2023-02-28T00:30:21.768Z,8.25
2023-02-28T00:32:48.669Z,7.13
2023-02-28T00:35:16.355Z,5.55
2023-02-28T00:37:43.795Z,4.63
2023-02-28T00:40:12.407Z,6.60
2023-02-28T00:42:39.638Z,4.93
2023-02-28T00:45:07.120Z,8.00
2023-02-28T00:47:34.034Z,5.28
2023-02-28T00:50:01.485Z,7.03
2023-02-28T00:52:28.320Z,4.88
2023-02-28T00:54:55.441Z,6.22
2023-02-28T00:57:22.262Z,5.40
2023-02-28T00:59:49.284Z,7.70
2023-02-28T01:02:16.093Z,6.03
2023-02-28T01:04:42.898Z,5.78
2023-02-28T01:07:10.407Z,6.43
2023-02-28T01:09:37.240Z,5.13
2023-02-28T01:12:04.283Z,4.68
2023-02-28T01:14:31.100Z,6.18
2023-02-28T01:16:57.856Z,5.80
2023-02-28T01:19:24.803Z,7.47
2023-02-28T01:21:51.546Z,5.93
2023-02-28T01:24:18.568Z,5.80
2023-02-28T01:26:45.437Z,5.00
2023-02-28T01:29:12.217Z,5.82
2023-02-28T01:31:39.015Z,6.07
2023-02-28T01:34:05.969Z,6.13
2023-02-28T01:36:32.725Z,7.95
2023-02-28T01:38:59.570Z,6.03
2023-02-28T01:41:32.629Z,6.50
2023-02-28T01:44:06.211Z,5.43
2023-02-28T01:46:35.889Z,5.95
2023-02-28T01:49:14.493Z,6.60
2023-02-28T01:51:51.894Z,5.15
2023-02-28T01:54:25.068Z,6.75
2023-02-28T01:57:02.652Z,5.00
2023-02-28T01:59:38.603Z,6.60
2023-02-28T02:02:05.726Z,5.05
2023-02-28T02:04:41.112Z,5.72
2023-02-28T02:07:09.013Z,4.97
2023-02-28T02:09:35.864Z,7.65
2023-02-28T02:12:26.598Z,5.50
2023-02-28T02:14:59.193Z,6.57
2023-02-28T02:17:26.078Z,4.90
2023-02-28T02:20:20.290Z,8.60
2023-02-28T02:23:07.129Z,5.07
2023-02-28T02:25:47.160Z,5.18
2023-02-28T02:28:39.193Z,7.90
2023-02-28T02:31:11.135Z,6.70
2023-02-28T02:34:11.176Z,6.68
2023-02-28T02:36:50.231Z,6.18
2023-02-28T02:39:53.023Z,6.45
2023-02-28T02:45:07.783Z,6.57
2023-02-28T02:47:36.162Z,4.95
2023-02-28T02:50:07.921Z,13.82
2023-02-28T02:52:45.599Z,10.38
2023-02-28T02:55:14.528Z,7.40
2023-02-28T02:57:52.509Z,6.20
2023-02-28T03:00:24.138Z,7.05
2023-02-28T03:02:54.161Z,6.68
2023-02-28T03:05:31.296Z,5.43
2023-02-28T03:07:58.065Z,6.03
2023-02-28T03:10:36.130Z,5.93
2023-02-28T03:13:11.697Z,7.40
2023-02-28T03:16:12.520Z,8.45
2023-02-28T03:19:30.771Z,8.30
2023-02-28T03:22:35.974Z,8.32
2023-02-28T03:25:30.057Z,7.03
2023-02-28T03:28:05.741Z,7.63
2023-02-28T03:30:54.874Z,7.75
2023-02-28T03:33:25.466Z,7.40
2023-02-28T03:36:03.852Z,9.52
2023-02-28T03:38:40.118Z,9.00
2023-02-28T03:41:24.956Z,7.45
2023-02-28T03:43:56.633Z,7.95
2023-02-28T03:46:27.073Z,7.95
2023-02-28T03:49:02.202Z,8.40
2023-02-28T03:51:30.491Z,9.70
2023-02-28T03:54:10.796Z,8.77
2023-02-28T03:56:48.608Z,8.25
2023-02-28T03:59:31.618Z,11.00
2023-02-28T04:01:59.498Z,9.38
2023-02-28T04:04:26.734Z,7.78
2023-02-28T04:07:01.559Z,6.82
2023-02-28T04:09:28.841Z,10.18
2023-02-28T04:11:57.328Z,10.98
2023-02-28T04:14:24.833Z,7.93
2023-02-28T04:16:52.282Z,9.20
2023-02-28T04:19:19.700Z,10.13
2023-02-28T04:21:49.606Z,8.70
2023-02-28T04:24:19.564Z,9.68
2023-02-28T04:29:19.237Z,9.98
2023-02-28T04:31:46.098Z,9.32
2023-02-28T04:34:13.147Z,11.65
2023-02-28T04:36:40.118Z,10.57
2023-02-28T04:39:06.976Z,11.38
2023-02-28T04:41:34.443Z,10.85
2023-02-28T04:44:01.328Z,10.98
2023-02-28T04:46:28.088Z,11.18
2023-02-28T04:48:55.547Z,13.20
2023-02-28T04:51:22.611Z,11.52
2023-02-28T04:53:49.803Z,11.27
2023-02-28T04:56:18.236Z,10.68
2023-02-28T04:58:45.744Z,11.15
2023-02-28T05:01:24.575Z,11.75
2023-02-28T05:03:53.279Z,12.05
2023-02-28T05:06:21.461Z,16.73
2023-02-28T05:08:48.523Z,11.35
2023-02-28T05:11:20.321Z,12.07
2023-02-28T05:13:47.609Z,11.18
2023-02-28T05:16:15.262Z,13.27
2023-02-28T05:18:42.423Z,11.60
2023-02-28T05:21:26.472Z,13.05
2023-02-28T05:23:54.642Z,14.25
2023-02-28T05:26:21.447Z,12.93
2023-02-28T05:28:50.858Z,13.82
2023-02-28T05:31:17.663Z,13.52
2023-02-28T05:33:44.488Z,14.05
2023-02-28T05:36:11.244Z,10.50
2023-02-28T05:38:39.040Z,13.73
2023-02-28T05:41:10.261Z,12.40
2023-02-28T05:43:38.127Z,12.02
2023-02-28T05:46:09.686Z,11.65
2023-02-28T05:48:38.303Z,12.05
2023-02-28T05:51:05.768Z,13.65
2023-02-28T05:53:33.340Z,14.18
2023-02-28T05:56:00.646Z,12.70
2023-02-28T05:58:31.646Z,14.85
2023-02-28T06:01:19.781Z,13.90
2023-02-28T06:03:46.605Z,16.52
2023-02-28T06:06:13.368Z,16.23
2023-02-28T06:08:40.175Z,15.18
2023-02-28T06:11:07.799Z,14.95
2023-02-28T06:13:35.511Z,17.52
2023-02-28T06:16:02.458Z,14.40
2023-02-28T06:18:29.231Z,17.05
2023-02-28T06:20:56.360Z,17.55
2023-02-28T06:23:23.588Z,12.30
2023-02-28T06:25:50.680Z,17.98
2023-02-28T06:28:20.294Z,15.32
2023-02-28T06:30:47.047Z,16.33
2023-02-28T06:33:13.818Z,15.93
2023-02-28T06:35:40.646Z,16.15
2023-02-28T06:38:07.566Z,15.13
2023-02-28T06:40:36.097Z,14.73
2023-02-28T06:43:03.559Z,15.52
2023-02-28T06:45:30.477Z,16.25
2023-02-28T06:47:57.222Z,16.88
2023-02-28T06:50:23.938Z,16.88
2023-02-28T06:52:54.881Z,15.52
2023-02-28T06:55:21.655Z,16.20
2023-02-28T06:57:48.463Z,15.07
2023-02-28T07:00:15.724Z,15.50
2023-02-28T07:02:42.490Z,16.02
2023-02-28T07:05:09.677Z,17.25
2023-02-28T07:07:39.109Z,19.98
2023-02-28T07:10:06.312Z,16.40
2023-02-28T07:12:33.304Z,17.30
2023-02-28T07:15:00.005Z,16.38
2023-02-28T07:17:26.749Z,18.50
2023-02-28T07:19:53.500Z,17.25
2023-02-28T07:22:20.280Z,15.05
2023-02-28T07:24:46.994Z,14.40
2023-02-28T07:27:13.776Z,16.63
2023-02-28T07:29:40.486Z,15.40
2023-02-28T07:32:07.290Z,20.83
2023-02-28T07:34:36.923Z,15.65
2023-02-28T07:37:04.822Z,17.33
2023-02-28T07:39:31.616Z,15.27
2023-02-28T07:41:58.386Z,21.42
2023-02-28T07:44:25.096Z,19.00
2023-02-28T07:46:51.906Z,17.27
2023-02-28T07:49:18.792Z,18.92
2023-02-28T07:51:45.704Z,13.98
2023-02-28T07:54:12.451Z,19.95
2023-02-28T07:56:39.135Z,16.05
2023-02-28T07:59:06.015Z,15.23
2023-02-28T08:01:33.128Z,15.60
2023-02-28T08:04:00.131Z,18.38
2023-02-28T08:06:27.394Z,14.13
2023-02-28T08:08:54.797Z,15.95
2023-02-28T08:11:21.531Z,16.30
2023-02-28T08:13:51.859Z,16.77
2023-02-28T08:16:22.995Z,18.23
2023-02-28T08:18:53.984Z,15.93
2023-02-28T08:21:21.757Z,20.70
2023-02-28T08:23:52.199Z,17.73
2023-02-28T08:26:20.452Z,17.42
2023-02-28T08:28:47.245Z,18.00
2023-02-28T08:31:16.378Z,15.07
2023-02-28T08:33:45.576Z,16.25
2023-02-28T08:36:15.131Z,15.95
2023-02-28T08:38:41.981Z,19.63
2023-02-28T08:41:12.054Z,18.27
2023-02-28T08:43:40.219Z,21.95
2023-02-28T08:46:08.217Z,16.05
2023-02-28T08:48:38.833Z,18.08
2023-02-28T08:51:10.238Z,16.90
2023-02-28T08:53:38.276Z,15.48
2023-02-28T08:56:10.512Z,17.48
2023-02-28T09:01:33.455Z,19.88
2023-02-28T09:04:00.449Z,23.42
2023-02-28T09:06:28.926Z,21.90
2023-02-28T09:09:00.505Z,18.70
2023-02-28T09:11:27.572Z,18.80
2023-02-28T09:13:56.288Z,16.73
2023-02-28T09:16:23.207Z,15.80
2023-02-28T09:18:49.953Z,16.15
2023-02-28T09:21:18.627Z,18.67
2023-02-28T09:23:47.315Z,15.95
2023-02-28T09:26:20.343Z,18.63
2023-02-28T09:28:47.416Z,18.25
2023-02-28T09:31:16.794Z,17.92
2023-02-28T09:33:44.000Z,17.60
2023-02-28T09:36:10.864Z,19.25
2023-02-28T09:38:37.714Z,27.58
2023-02-28T09:41:12.539Z,20.52
2023-02-28T09:43:44.330Z,22.67
2023-02-28T09:46:29.940Z,22.15
2023-02-28T09:48:58.242Z,19.38
2023-02-28T09:51:29.727Z,17.52
2023-02-28T09:54:01.687Z,18.63
2023-02-28T09:56:39.939Z,17.48
2023-02-28T09:59:44.577Z,18.10
2023-02-28T10:03:02.465Z,18.38
2023-02-28T10:05:35.890Z,13.90
2023-02-28T10:08:17.040Z,16.70
2023-02-28T10:10:47.006Z,18.13
2023-02-28T10:13:36.570Z,26.42
2023-02-28T10:16:09.922Z,20.08
2023-02-28T10:18:51.756Z,18.77
2023-02-28T10:21:29.719Z,18.13
2023-02-28T10:24:54.920Z,16.30
2023-02-28T10:27:25.046Z,14.40
2023-02-28T10:29:57.006Z,20.17
2023-02-28T10:32:26.007Z,25.13
2023-02-28T10:34:58.734Z,22.10
2023-02-28T10:37:25.611Z,14.80
2023-02-28T10:39:52.393Z,18.05
2023-02-28T10:42:30.622Z,14.80
2023-02-28T10:45:18.213Z,18.15
2023-02-28T10:48:02.132Z,17.70
2023-02-28T10:50:45.790Z,15.50
2023-02-28T10:53:59.587Z,19.13
2023-02-28T10:56:28.397Z,18.90
2023-02-28T10:59:03.295Z,17.38
2023-02-28T11:01:33.898Z,15.05
2023-02-28T11:04:01.156Z,14.52
2023-02-28T11:06:32.617Z,17.33
2023-02-28T11:09:05.678Z,15.60
2023-02-28T11:11:44.339Z,19.30
2023-02-28T11:14:41.070Z,15.55
2023-02-28T11:17:23.952Z,20.77
2023-02-28T11:20:08.494Z,18.38
2023-02-28T11:22:40.116Z,17.90
2023-02-28T11:25:33.233Z,15.20
2023-02-28T11:28:03.098Z,13.82
2023-02-28T11:30:32.693Z,16.65
2023-02-28T11:32:59.797Z,14.45
2023-02-28T11:35:37.852Z,15.57
2023-02-28T11:38:06.591Z,14.75
2023-02-28T11:40:55.329Z,15.38
2023-02-28T11:43:40.118Z,14.50
2023-02-28T11:46:22.242Z,16.17
2023-02-28T11:49:18.218Z,14.18
2023-02-28T11:51:49.227Z,16.25
2023-02-28T11:54:39.636Z,14.57
2023-02-28T11:57:27.532Z,14.95
2023-02-28T12:00:26.732Z,21.02
2023-02-28T12:03:15.294Z,28.80
2023-02-28T12:05:59.493Z,23.30
2023-02-28T12:08:44.812Z,14.55
2023-02-28T12:11:41.957Z,14.73
2023-02-28T12:14:27.580Z,14.48
2023-02-28T12:17:01.769Z,16.80
2023-02-28T12:19:36.069Z,14.63
2023-02-28T12:22:30.939Z,17.55
2023-02-28T12:25:10.229Z,18.65
2023-02-28T12:27:45.370Z,14.75
2023-02-28T12:30:26.930Z,15.60
2023-02-28T12:33:04.590Z,14.80
2023-02-28T12:35:50.698Z,13.98
2023-02-28T12:38:30.467Z,13.88
2023-02-28T12:41:00.332Z,16.25
2023-02-28T12:43:42.240Z,20.75
2023-02-28T12:46:11.872Z,25.65
2023-02-28T12:48:44.363Z,19.63
2023-02-28T12:51:12.104Z,18.17
2023-02-28T12:53:55.670Z,13.13
2023-02-28T12:56:46.915Z,15.43
2023-02-28T12:59:28.784Z,15.43
2023-02-28T13:02:35.174Z,12.55
2023-02-28T13:05:01.940Z,13.93
2023-02-28T13:08:02.517Z,14.18
2023-02-28T13:10:41.249Z,14.98
2023-02-28T13:13:14.406Z,14.90
2023-02-28T13:15:46.136Z,15.85
2023-02-28T13:18:31.053Z,15.10
2023-02-28T13:20:57.851Z,14.15
2023-02-28T13:23:41.894Z,12.38
2023-02-28T13:26:08.726Z,14.60
2023-02-28T13:29:20.220Z,14.23
2023-02-28T13:32:08.738Z,12.20
2023-02-28T13:34:40.589Z,14.15
2023-02-28T13:37:22.705Z,19.58
2023-02-28T13:40:04.153Z,15.23
2023-02-28T13:42:38.134Z,14.38
2023-02-28T13:45:04.973Z,13.35
2023-02-28T13:48:02.371Z,13.05
2023-02-28T13:50:31.074Z,15.43
2023-02-28T13:53:17.197Z,15.32
2023-02-28T13:55:58.557Z,18.33
2023-02-28T13:58:50.041Z,17.40
2023-02-28T14:01:35.871Z,13.20
2023-02-28T14:04:21.706Z,10.85
2023-02-28T14:06:52.174Z,13.90
2023-02-28T14:09:29.985Z,14.82
2023-02-28T14:11:57.224Z,13.32
2023-02-28T14:14:48.878Z,15.13
2023-02-28T14:17:18.145Z,18.90
2023-02-28T14:19:49.830Z,13.23
2023-02-28T14:22:35.494Z,16.45
2023-02-28T14:25:39.677Z,16.77
2023-02-28T14:28:44.803Z,12.60
2023-02-28T14:31:20.432Z,13.57
2023-02-28T14:34:24.336Z,13.60
2023-02-28T14:36:52.914Z,14.75
2023-02-28T14:39:31.924Z,13.68
2023-02-28T14:42:08.661Z,14.07
2023-02-28T14:44:37.651Z,13.00
2023-02-28T14:47:09.827Z,16.02
2023-02-28T14:52:17.258Z,14.40
2023-02-28T14:54:45.601Z,13.65
2023-02-28T14:57:33.772Z,30.20
2023-02-28T15:00:30.386Z,38.88
2023-02-28T15:02:59.051Z,19.17
2023-02-28T15:05:30.863Z,21.83
2023-02-28T15:08:14.836Z,17.30
2023-02-28T15:10:56.364Z,17.85
2023-02-28T15:13:24.626Z,17.52
2023-02-28T15:16:04.687Z,17.33
2023-02-28T15:18:45.660Z,17.85
2023-02-28T15:21:19.375Z,18.75
2023-02-28T15:23:51.753Z,17.10
2023-02-28T15:26:22.917Z,18.58
2023-02-28T15:28:54.731Z,23.05
2023-02-28T15:31:53.872Z,14.07
2023-02-28T15:34:44.766Z,14.93
2023-02-28T15:38:03.956Z,16.23
2023-02-28T15:40:32.411Z,15.65
2023-02-28T15:43:33.031Z,14.55
2023-02-28T15:46:15.327Z,18.30
2023-02-28T15:51:37.411Z,12.20
2023-02-28T15:54:08.927Z,13.32
2023-02-28T15:56:44.182Z,16.90
2023-02-28T15:59:19.405Z,16.45
2023-02-28T16:01:46.370Z,14.75
2023-02-28T16:04:19.623Z,12.52
2023-02-28T16:07:02.611Z,14.50
2023-02-28T16:09:32.576Z,18.85
2023-02-28T16:12:03.077Z,16.38
2023-02-28T16:14:31.801Z,16.75
2023-02-28T16:17:07.375Z,14.80
2023-02-28T16:19:34.820Z,13.30
2023-02-28T16:22:02.098Z,16.50
2023-02-28T16:24:28.891Z,14.38
2023-02-28T16:26:57.368Z,15.13
2023-02-28T16:29:35.508Z,17.17
2023-02-28T16:32:04.957Z,16.88
2023-02-28T16:34:31.945Z,16.75
2023-02-28T16:36:59.539Z,21.33
2023-02-28T16:39:26.309Z,16.90
2023-02-28T16:41:56.043Z,22.65
2023-02-28T16:44:33.738Z,19.13
2023-02-28T16:47:05.106Z,19.48
2023-02-28T16:49:32.213Z,16.42
2023-02-28T16:51:59.036Z,24.92
2023-02-28T16:54:25.891Z,18.10
2023-02-28T16:56:52.765Z,18.73
2023-02-28T16:59:27.279Z,22.88
2023-02-28T17:01:55.043Z,20.52
2023-02-28T17:04:21.840Z,20.48
2023-02-28T17:06:49.678Z,22.60
2023-02-28T17:09:19.385Z,21.95
2023-02-28T17:11:46.566Z,22.67
2023-02-28T17:14:13.506Z,20.75
2023-02-28T17:16:41.260Z,22.23
2023-02-28T17:19:12.536Z,21.40
2023-02-28T17:21:39.777Z,18.17
2023-02-28T17:24:06.698Z,18.02
2023-02-28T17:26:33.727Z,15.77
2023-02-28T17:29:00.685Z,16.85
2023-02-28T17:31:28.667Z,17.17
2023-02-28T17:33:56.186Z,16.83
2023-02-28T17:36:27.001Z,19.40
2023-02-28T17:38:56.136Z,18.75
2023-02-28T17:41:23.103Z,32.05
2023-02-28T17:43:51.393Z,57.42
2023-02-28T17:46:23.907Z,66.28
2023-02-28T17:48:52.383Z,59.45
2023-02-28T17:51:20.953Z,49.65
2023-02-28T17:53:49.032Z,25.30
2023-02-28T17:56:24.243Z,21.85
2023-02-28T17:58:53.379Z,18.45
2023-02-28T18:01:21.247Z,17.05
2023-02-28T18:03:48.490Z,18.27
2023-02-28T18:06:34.637Z,15.80
2023-02-28T18:09:01.372Z,19.20
2023-02-28T18:11:43.509Z,19.33
2023-02-28T18:14:10.493Z,17.42
2023-02-28T18:16:37.392Z,19.83
2023-02-28T18:19:04.339Z,20.05
2023-02-28T18:21:31.570Z,19.38
2023-02-28T18:23:58.627Z,21.08
2023-02-28T18:26:25.390Z,19.55
2023-02-28T18:28:52.086Z,19.30
2023-02-28T18:31:20.659Z,16.67
2023-02-28T18:33:52.110Z,20.33
2023-02-28T18:36:20.884Z,19.25
2023-02-28T18:38:50.468Z,19.90
2023-02-28T18:41:18.535Z,17.08
2023-02-28T18:43:45.300Z,21.15
2023-02-28T18:46:14.360Z,19.77
2023-02-28T18:48:41.166Z,16.52
2023-02-28T18:51:09.508Z,17.30
2023-02-28T18:53:37.179Z,17.15
2023-02-28T18:56:05.447Z,18.02
2023-02-28T18:58:33.540Z,15.32
2023-02-28T19:01:02.290Z,17.02
2023-02-28T19:03:29.426Z,18.63
2023-02-28T19:05:58.212Z,15.98
2023-02-28T19:08:25.886Z,18.98
2023-02-28T19:10:53.034Z,24.30
2023-02-28T19:13:20.810Z,20.08
2023-02-28T19:15:48.201Z,18.77
2023-02-28T19:18:15.313Z,18.30
2023-02-28T19:20:42.206Z,21.15
2023-02-28T19:23:11.730Z,17.92
2023-02-28T19:25:42.059Z,21.55
2023-02-28T19:28:08.819Z,19.10
2023-02-28T19:30:35.627Z,18.10
2023-02-28T19:33:02.578Z,18.70
2023-02-28T19:35:29.662Z,18.70
2023-02-28T19:37:58.269Z,18.65
2023-02-28T19:40:25.581Z,18.40
2023-02-28T19:42:52.298Z,19.10
2023-02-28T19:45:19.031Z,16.58
2023-02-28T19:47:45.780Z,18.27
2023-02-28T19:50:12.591Z,18.00
2023-02-28T19:52:39.302Z,17.23
2023-02-28T19:55:06.368Z,16.98
2023-02-28T19:57:33.108Z,15.27
2023-02-28T20:00:00.280Z,16.13
2023-02-28T20:02:27.620Z,17.70
2023-02-28T20:04:59.875Z,15.57
2023-02-28T20:07:27.781Z,18.77
2023-02-28T20:09:54.569Z,16.92
2023-02-28T20:12:24.416Z,20.58
2023-02-28T20:14:52.494Z,18.55
2023-02-28T20:17:19.441Z,18.35
2023-02-28T20:19:46.219Z,17.92
2023-02-28T20:22:13.227Z,18.58
2023-02-28T20:24:39.984Z,16.88
2023-02-28T20:27:06.739Z,18.98
2023-02-28T20:29:34.371Z,19.25
2023-02-28T20:32:07.003Z,17.90
2023-02-28T20:34:34.149Z,19.50
2023-02-28T20:37:00.958Z,19.80
2023-02-28T20:39:33.086Z,18.92
2023-02-28T20:41:59.951Z,19.30
2023-02-28T20:44:26.759Z,21.15
2023-02-28T20:46:53.467Z,18.55
2023-02-28T20:49:20.176Z,21.80
2023-02-28T20:51:46.903Z,21.60
2023-02-28T20:54:14.065Z,21.17
2023-02-28T20:56:40.883Z,22.50
2023-02-28T20:59:13.057Z,22.73
2023-02-28T21:04:08.168Z,20.25
2023-02-28T21:06:40.136Z,20.40
2023-02-28T21:09:08.661Z,19.08
2023-02-28T21:11:40.493Z,21.08
2023-02-28T21:14:13.220Z,24.63
2023-02-28T21:16:44.331Z,18.20
2023-02-28T21:19:11.803Z,16.70
2023-02-28T21:21:44.520Z,22.23
2023-02-28T21:24:14.411Z,17.48
2023-02-28T21:26:44.668Z,23.25
2023-02-28T21:29:12.767Z,21.40
2023-02-28T21:31:39.918Z,24.17
2023-02-28T21:34:08.504Z,24.13
2023-02-28T21:36:41.644Z,19.25
2023-02-28T21:39:12.774Z,22.58
2023-02-28T21:41:40.037Z,27.95
2023-02-28T21:44:06.858Z,29.55
2023-02-28T21:46:34.420Z,27.35
2023-02-28T21:49:01.563Z,28.92
2023-02-28T21:51:38.381Z,25.98
2023-02-28T21:54:06.058Z,22.45
2023-02-28T21:56:36.163Z,19.77
2023-02-28T21:59:07.300Z,21.17
2023-02-28T22:01:44.923Z,22.65
2023-02-28T22:04:23.692Z,26.25
2023-02-28T22:06:53.600Z,25.95
2023-02-28T22:09:21.300Z,22.98
2023-02-28T22:11:48.382Z,23.30
2023-02-28T22:14:15.297Z,24.92
2023-02-28T22:16:57.633Z,19.60
2023-02-28T22:19:25.180Z,22.25
2023-02-28T22:21:53.879Z,21.98
2023-02-28T22:24:24.244Z,22.52
2023-02-28T22:26:51.959Z,19.88
2023-02-28T22:29:19.150Z,22.23
2023-02-28T22:31:46.056Z,23.08
2023-02-28T22:34:13.458Z,23.50
2023-02-28T22:36:42.308Z,22.70
2023-02-28T22:39:09.993Z,23.17
2023-02-28T22:41:36.814Z,22.67
2023-02-28T22:44:04.830Z,23.58
2023-02-28T22:46:34.285Z,20.02
2023-02-28T22:49:03.228Z,22.45
2023-02-28T22:51:30.525Z,22.27
2023-02-28T22:53:58.465Z,21.92
2023-02-28T22:56:28.223Z,19.95
2023-02-28T22:58:57.050Z,21.85
2023-02-28T23:01:25.872Z,21.95
2023-02-28T23:03:52.890Z,22.10
2023-02-28T23:06:34.868Z,24.00
2023-02-28T23:09:06.194Z,19.95
2023-02-28T23:11:44.814Z,24.57
2023-02-28T23:14:13.307Z,22.70
2023-02-28T23:16:44.768Z,21.13
2023-02-28T23:19:33.863Z,22.20
2023-02-28T23:22:01.970Z,20.75
2023-02-28T23:24:31.159Z,22.90
2023-02-28T23:27:00.551Z,22.77
2023-02-28T23:29:29.319Z,23.70
2023-02-28T23:31:56.302Z,22.95
2023-02-28T23:34:30.347Z,22.98
2023-02-28T23:36:59.549Z,22.85
2023-02-28T23:39:27.576Z,22.25
2023-02-28T23:41:55.440Z,23.52
2023-02-28T23:44:22.611Z,20.23
2023-02-28T23:46:51.922Z,23.15
2023-02-28T23:49:20.065Z,25.65
2023-02-28T23:51:49.345Z,20.80
2023-02-28T23:54:17.593Z,23.52
2023-02-28T23:56:44.694Z,22.98
2023-02-28T23:59:11.546Z,21.33
